Time;durP1;ratioP1;P1;durP2;ratioP2;P2;SDS_P1;SDS_P2;PMS_P1;PMS_P2;Temp;Humidity;BMP_temperature;BMP_pressure;BME280_temperature;BME280_humidity;BME280_pressure;Samples;Min_cycle;Max_cycle;Signal;HPM_P1;HPM_P2
2023/10/08 00:00:55;;;;;;;0.30;0.30;;;14.40;99.90;;;;;;5098237;28;20045;-75
2023/10/08 00:03:21;;;;;;;0.30;0.30;;;14.30;99.90;;;;;;5098439;28;20043;-76
2023/10/08 00:05:49;;;;;;;0.30;0.30;;;14.20;99.90;;;;;;5096770;28;20035;-77
2023/10/08 00:08:16;;;;;;;0.30;0.30;;;14.20;99.90;;;;;;5097715;28;20083;-76
2023/10/08 00:10:44;;;;;;;0.38;0.38;;;14.10;99.90;;;;;;5097850;28;20048;-75
2023/10/08 00:13:12;;;;;;;0.30;0.30;;;14.00;99.90;;;;;;5097721;28;20047;-75
2023/10/08 00:15:55;;;;;;;0.30;0.30;;;13.90;99.90;;;;;;5097755;28;20072;-77
2023/10/08 00:18:22;;;;;;;0.30;0.30;;;13.90;99.90;;;;;;5097588;28;20078;-76
2023/10/08 00:20:57;;;;;;;0.30;0.30;;;13.90;99.90;;;;;;5097350;28;20039;-76
2023/10/08 00:23:25;;;;;;;0.40;0.40;;;13.90;99.90;;;;;;5097478;28;20048;-75
2023/10/08 00:25:54;;;;;;;0.30;0.30;;;13.80;99.90;;;;;;5097415;28;20433;-76
2023/10/08 00:28:21;;;;;;;0.30;0.30;;;13.90;99.90;;;;;;5097800;28;20090;-76
2023/10/08 00:30:47;;;;;;;0.30;0.30;;;13.80;99.90;;;;;;5079503;28;20097;-77
2023/10/08 00:33:16;;;;;;;0.30;0.30;;;13.80;99.90;;;;;;5097312;28;20083;-76
2023/10/08 00:35:42;;;;;;;0.30;0.30;;;13.70;99.90;;;;;;5097427;28;20105;-76
2023/10/08 00:38:14;;;;;;;0.30;0.30;;;13.70;99.90;;;;;;5097265;28;20468;-76
2023/10/08 00:40:44;;;;;;;0.35;0.35;;;13.70;99.90;;;;;;5097020;28;20086;-76
2023/10/08 00:43:10;;;;;;;0.30;0.30;;;13.70;99.90;;;;;;5097558;28;20168;-76
2023/10/08 00:45:43;;;;;;;0.40;0.40;;;13.70;99.90;;;;;;5097140;28;20044;-74
2023/10/08 00:48:16;;;;;;;0.30;0.30;;;13.60;99.90;;;;;;5097163;28;20123;-75
2023/10/08 00:50:43;;;;;;;0.40;0.40;;;13.70;99.90;;;;;;5097351;28;20127;-76
2023/10/08 00:53:21;;;;;;;0.30;0.30;;;13.60;99.90;;;;;;5096895;28;20515;-76
2023/10/08 00:55:59;;;;;;;0.32;0.32;;;13.60;99.90;;;;;;5097466;28;20093;-77
2023/10/08 00:58:26;;;;;;;0.40;0.40;;;13.60;99.90;;;;;;5096805;28;20126;-76
2023/10/08 01:00:59;;;;;;;0.40;0.40;;;13.60;99.90;;;;;;5096473;28;20043;-75
2023/10/08 01:03:26;;;;;;;0.30;0.30;;;13.50;99.90;;;;;;5096613;28;20036;-75
2023/10/08 01:05:57;;;;;;;0.47;0.47;;;13.50;99.90;;;;;;5096918;28;20380;-74
2023/10/08 01:08:36;;;;;;;0.30;0.30;;;13.50;99.90;;;;;;5096826;28;20091;-75
2023/10/08 01:11:49;;;;;;;0.30;0.30;;;13.50;99.90;;;;;;5096552;28;20044;-76
2023/10/08 01:14:07;;;;;;;0.38;0.38;;;13.50;99.90;;;;;;5096131;28;20123;-76
2023/10/08 01:16:34;;;;;;;0.30;0.30;;;13.50;99.90;;;;;;5096707;28;20102;-74
2023/10/08 01:19:00;;;;;;;0.30;0.30;;;13.50;99.90;;;;;;5096196;28;20502;-78
2023/10/08 01:21:39;;;;;;;0.30;0.30;;;13.60;99.90;;;;;;5095211;28;20032;-77
2023/10/08 01:24:06;;;;;;;0.30;0.30;;;13.60;99.90;;;;;;5096435;28;20047;-76
2023/10/08 01:26:34;;;;;;;0.30;0.30;;;13.60;99.90;;;;;;5096322;28;20044;-76
2023/10/08 01:29:06;;;;;;;0.40;0.40;;;13.70;99.90;;;;;;5096183;28;20361;-75
2023/10/08 01:31:32;;;;;;;0.30;0.30;;;13.70;99.90;;;;;;5096210;28;20063;-76
2023/10/08 01:34:04;;;;;;;0.30;0.30;;;13.70;99.90;;;;;;5096107;28;20036;-76
2023/10/08 01:36:31;;;;;;;0.32;0.32;;;13.60;99.90;;;;;;5096178;28;20062;-75
2023/10/08 01:38:57;;;;;;;0.30;0.30;;;13.60;99.90;;;;;;5095947;28;20107;-75
2023/10/08 01:41:32;;;;;;;0.30;0.30;;;13.60;99.90;;;;;;5095803;28;20048;-76
2023/10/08 01:43:58;;;;;;;0.40;0.40;;;13.60;99.90;;;;;;5096303;28;20376;-77
2023/10/08 01:46:25;;;;;;;0.40;0.40;;;13.60;99.90;;;;;;5096082;28;20048;-77
2023/10/08 01:49:03;;;;;;;0.30;0.30;;;13.50;99.90;;;;;;5096172;28;20154;-76
2023/10/08 01:51:36;;;;;;;0.40;0.40;;;13.50;99.90;;;;;;5096185;28;20051;-77
2023/10/08 01:54:04;;;;;;;0.30;0.30;;;13.60;99.90;;;;;;5095674;28;20524;-77
2023/10/08 01:56:29;;;;;;;0.30;0.30;;;13.60;99.90;;;;;;5095803;28;20533;-76
2023/10/08 01:58:55;;;;;;;0.40;0.40;;;13.50;99.90;;;;;;5096031;28;20043;-76
2023/10/08 02:01:21;;;;;;;0.40;0.40;;;13.60;99.90;;;;;;5096175;28;20055;-77
2023/10/08 02:03:48;;;;;;;0.40;0.40;;;13.50;99.90;;;;;;5095898;28;20046;-76
2023/10/08 02:06:13;;;;;;;0.40;0.40;;;13.50;99.90;;;;;;5095821;28;20036;-76
2023/10/08 02:08:39;;;;;;;0.37;0.37;;;13.50;99.90;;;;;;5095866;28;20101;-75
2023/10/08 02:11:05;;;;;;;0.30;0.30;;;13.50;99.90;;;;;;5095409;28;20422;-76
2023/10/08 02:13:31;;;;;;;0.30;0.30;;;13.60;99.90;;;;;;5095555;28;20082;-76
2023/10/08 02:15:58;;;;;;;0.40;0.40;;;13.50;99.90;;;;;;5094718;28;20036;-76
2023/10/08 02:18:24;;;;;;;0.30;0.30;;;13.60;99.90;;;;;;5095190;28;20100;-78
2023/10/08 02:20:50;;;;;;;;;;;13.60;99.90;;;;;;5095492;28;20097;-76
2023/10/08 02:23:17;;;;;;;0.30;0.30;;;13.60;99.90;;;;;;5094949;28;20432;-76
2023/10/08 02:25:44;;;;;;;0.30;0.30;;;13.60;99.90;;;;;;5094130;28;20047;-76
2023/10/08 02:28:12;;;;;;;0.40;0.40;;;13.60;99.90;;;;;;5095225;28;20042;-77
2023/10/08 02:30:39;;;;;;;0.30;0.30;;;13.50;99.90;;;;;;5095077;28;20044;-76
2023/10/08 02:33:13;;;;;;;0.30;0.30;;;13.60;99.90;;;;;;5095137;28;20054;-76
2023/10/08 02:35:42;;;;;;;0.30;0.30;;;13.60;99.90;;;;;;5095058;28;20146;-76
2023/10/08 02:38:09;;;;;;;0.70;0.70;;;13.60;99.90;;;;;;5094920;28;20040;-77
2023/10/08 02:40:37;;;;;;;0.40;0.40;;;13.60;99.90;;;;;;5095340;28;20036;-77
2023/10/08 02:43:06;;;;;;;0.30;0.30;;;13.60;99.90;;;;;;5094806;28;20044;-75
2023/10/08 02:45:31;;;;;;;0.73;0.65;;;13.70;99.90;;;;;;5094681;28;20043;-77
2023/10/08 02:47:57;;;;;;;0.40;0.40;;;13.70;99.90;;;;;;5094635;28;20032;-77
2023/10/08 02:50:23;;;;;;;0.40;0.40;;;13.70;99.90;;;;;;5094617;28;20127;-75
2023/10/08 02:52:52;;;;;;;0.38;0.38;;;13.70;99.90;;;;;;5094509;28;20036;-76
2023/10/08 02:55:51;;;;;;;0.30;0.30;;;13.70;99.90;;;;;;5094713;28;20112;-76
2023/10/08 02:58:19;;;;;;;0.40;0.40;;;13.70;99.90;;;;;;5091444;28;20044;-76
2023/10/08 03:00:47;;;;;;;0.30;0.30;;;13.60;99.90;;;;;;5094220;28;20051;-76
2023/10/08 03:03:16;;;;;;;0.70;0.70;;;13.70;99.90;;;;;;5094567;28;20063;-76
2023/10/08 03:05:46;;;;;;;0.40;0.40;;;13.70;99.90;;;;;;5094569;28;20043;-76
2023/10/08 03:08:13;;;;;;;0.30;0.30;;;13.70;99.90;;;;;;5094658;28;20104;-75
2023/10/08 03:10:41;;;;;;;0.40;0.40;;;13.70;99.90;;;;;;5093272;28;20543;-76
2023/10/08 03:13:12;;;;;;;0.30;0.30;;;13.70;99.90;;;;;;5094113;28;20035;-76
2023/10/08 03:15:41;;;;;;;0.40;0.40;;;13.70;99.90;;;;;;5094171;28;20055;-75
2023/10/08 03:18:10;;;;;;;0.68;0.68;;;13.70;99.90;;;;;;5094429;28;20137;-75
2023/10/08 03:20:41;;;;;;;0.30;0.30;;;13.70;99.90;;;;;;5094124;28;20054;-77
2023/10/08 03:23:23;;;;;;;0.30;0.30;;;13.70;99.90;;;;;;5094130;28;20055;-78
2023/10/08 03:26:09;;;;;;;0.30;0.30;;;13.70;99.90;;;;;;5093748;28;20433;-76
2023/10/08 03:28:35;;;;;;;0.32;0.32;;;13.70;99.90;;;;;;5093167;28;20480;-75
2023/10/08 03:31:04;;;;;;;2.93;0.50;;;13.70;99.90;;;;;;5094080;28;20043;-76
2023/10/08 03:33:34;;;;;;;0.30;0.30;;;13.60;99.90;;;;;;5094138;28;20040;-77
2023/10/08 03:36:14;;;;;;;0.30;0.30;;;13.70;99.90;;;;;;5093966;28;20043;-77
2023/10/08 03:38:50;;;;;;;0.30;0.30;;;13.60;99.90;;;;;;5094569;28;20123;-76
2023/10/08 03:41:29;;;;;;;0.30;0.30;;;13.60;99.90;;;;;;5093971;28;20040;-76
2023/10/08 03:44:02;;;;;;;0.40;0.40;;;13.60;99.90;;;;;;5092726;28;20047;-75
2023/10/08 03:46:29;;;;;;;0.30;0.30;;;13.50;99.90;;;;;;5093971;28;20036;-75
2023/10/08 03:48:57;;;;;;;0.30;0.30;;;13.60;99.90;;;;;;5093785;28;20414;-77
2023/10/08 03:51:27;;;;;;;0.82;0.60;;;13.50;99.90;;;;;;5094161;28;20353;-76
2023/10/08 03:54:10;;;;;;;0.30;0.30;;;13.60;99.90;;;;;;5092829;28;20043;-75
2023/10/08 03:56:41;;;;;;;0.30;0.30;;;13.50;99.90;;;;;;5093952;28;20109;-77
2023/10/08 03:59:13;;;;;;;0.30;0.30;;;13.50;99.90;;;;;;5093875;28;20101;-76
2023/10/08 04:01:42;;;;;;;0.30;0.30;;;13.50;99.90;;;;;;5093781;28;20044;-75
2023/10/08 04:04:14;;;;;;;0.40;0.40;;;13.50;99.90;;;;;;5093983;28;20051;-76
2023/10/08 04:06:49;;;;;;;0.40;0.40;;;13.40;99.90;;;;;;5093955;28;20051;-76
2023/10/08 04:09:23;;;;;;;0.30;0.30;;;13.50;99.90;;;;;;5094074;28;20052;-76
2023/10/08 04:11:55;;;;;;;0.40;0.40;;;13.40;99.90;;;;;;5093718;28;20111;-78
2023/10/08 04:14:23;;;;;;;0.30;0.30;;;13.40;99.90;;;;;;5093571;28;20450;-76
2023/10/08 04:16:52;;;;;;;0.30;0.30;;;13.50;99.90;;;;;;5093375;28;20473;-77
2023/10/08 04:19:26;;;;;;;0.30;0.30;;;13.40;99.90;;;;;;5093509;28;20044;-76
2023/10/08 04:21:56;;;;;;;0.38;0.38;;;13.40;99.90;;;;;;5093432;28;20035;-76
2023/10/08 04:24:28;;;;;;;0.30;0.30;;;13.40;99.90;;;;;;5093351;28;20040;-76
2023/10/08 04:26:58;;;;;;;0.40;0.40;;;13.40;99.90;;;;;;5093377;28;20044;-76
2023/10/08 04:29:26;;;;;;;0.40;0.40;;;13.40;99.90;;;;;;5093464;28;20442;-77
2023/10/08 04:32:01;;;;;;;0.40;0.40;;;13.40;99.90;;;;;;5093344;28;20036;-75
2023/10/08 04:34:28;;;;;;;0.30;0.30;;;13.40;99.90;;;;;;5093561;28;20044;-76
2023/10/08 04:36:57;;;;;;;0.30;0.30;;;13.40;99.90;;;;;;5093343;28;20050;-77
2023/10/08 04:39:31;;;;;;;0.30;0.30;;;13.30;99.90;;;;;;5094123;28;20471;-76
2023/10/08 04:42:14;;;;;;;0.30;0.30;;;13.40;99.90;;;;;;5096269;28;20357;-77
2023/10/08 04:44:40;;;;;;;0.40;0.40;;;13.30;99.90;;;;;;5097781;28;20123;-80
2023/10/08 04:47:09;;;;;;;0.30;0.30;;;13.30;99.90;;;;;;5097104;28;20051;-77
2023/10/08 04:49:39;;;;;;;0.30;0.30;;;13.40;99.90;;;;;;5096047;28;20032;-77
2023/10/08 04:52:18;;;;;;;1.30;0.65;;;13.30;99.90;;;;;;5097408;28;20044;-75
2023/10/08 04:54:57;;;;;;;0.40;0.40;;;13.30;99.90;;;;;;5097390;28;20039;-77
2023/10/08 04:57:22;;;;;;;0.40;0.40;;;13.30;99.90;;;;;;5097328;28;20032;-77
2023/10/08 04:59:57;;;;;;;0.30;0.30;;;13.30;99.90;;;;;;5096735;28;20040;-77
2023/10/08 05:02:48;;;;;;;0.30;0.30;;;13.30;99.90;;;;;;5096708;28;20079;-77
2023/10/08 05:05:23;;;;;;;0.38;0.38;;;13.30;99.90;;;;;;5096676;28;20072;-77
2023/10/08 05:15:35;;;;;;;0.30;0.30;;;13.30;99.90;;;;;;5096476;28;20044;-77
2023/10/08 05:20:59;;;;;;;0.40;0.40;;;13.40;99.90;;;;;;5061982;28;20044;-77
2023/10/08 05:28:36;;;;;;;0.40;0.40;;;13.30;99.90;;;;;;5096166;28;20048;-78
2023/10/08 05:34:14;;;;;;;0.30;0.30;;;13.30;99.90;;;;;;5095841;28;20050;-77
2023/10/08 05:39:40;;;;;;;0.30;0.30;;;13.30;99.90;;;;;;5071921;28;20048;-78
2023/10/08 05:42:46;;;;;;;0.40;0.40;;;13.30;99.90;;;;;;5096318;28;20040;-75
2023/10/08 05:55:26;;;;;;;0.30;0.30;;;13.30;99.90;;;;;;5096073;28;20051;-76
2023/10/08 05:58:13;;;;;;;0.50;0.50;;;13.30;99.90;;;;;;5095980;28;20044;-77
2023/10/08 06:06:47;;;;;;;0.30;0.30;;;13.30;99.90;;;;;;5095467;28;20127;-77
2023/10/08 06:09:04;;;;;;;0.30;0.30;;;13.30;99.90;;;;;;5087481;28;20052;-77
2023/10/08 06:11:41;;;;;;;0.30;0.30;;;13.30;99.90;;;;;;5095438;28;20079;-75
2023/10/08 06:14:13;;;;;;;0.30;0.30;;;13.30;99.90;;;;;;5095412;28;20039;-75
2023/10/08 06:16:44;;;;;;;0.40;0.40;;;13.30;99.90;;;;;;5095306;28;20464;-75
2023/10/08 06:19:13;;;;;;;0.40;0.40;;;13.30;99.90;;;;;;5095415;28;20036;-75
2023/10/08 06:21:41;;;;;;;0.30;0.30;;;13.30;99.90;;;;;;5095102;28;20032;-73
2023/10/08 06:24:16;;;;;;;0.30;0.30;;;13.40;99.90;;;;;;5094912;28;20089;-78
2023/10/08 06:26:42;;;;;;;0.40;0.40;;;13.40;99.90;;;;;;5095224;28;20031;-73
2023/10/08 06:29:27;;;;;;;0.40;0.40;;;13.50;99.90;;;;;;5095346;28;20380;-78
2023/10/08 06:31:57;;;;;;;0.30;0.30;;;13.40;99.90;;;;;;5094962;28;20043;-72
2023/10/08 06:34:27;;;;;;;0.30;0.30;;;13.50;99.90;;;;;;5094913;28;20044;-72
2023/10/08 06:36:54;;;;;;;0.30;0.30;;;13.50;99.90;;;;;;5095025;28;20097;-73
2023/10/08 06:39:25;;;;;;;0.30;0.30;;;13.50;99.90;;;;;;5094734;28;20079;-73
2023/10/08 06:41:53;;;;;;;0.30;0.30;;;13.60;99.90;;;;;;5094881;28;20031;-73
2023/10/08 06:44:19;;;;;;;0.30;0.30;;;13.60;99.90;;;;;;5095062;28;20036;-72
2023/10/08 06:46:45;;;;;;;0.40;0.40;;;13.70;99.90;;;;;;5094978;28;20039;-72
2023/10/08 06:49:11;;;;;;;0.30;0.30;;;13.70;99.90;;;;;;5094778;28;20379;-72
2023/10/08 06:51:44;;;;;;;0.30;0.30;;;13.70;99.90;;;;;;5094712;28;20349;-72
2023/10/08 06:54:17;;;;;;;0.40;0.40;;;13.70;99.90;;;;;;5094511;28;20032;-72
2023/10/08 06:56:51;;;;;;;0.32;0.32;;;13.80;99.90;;;;;;5095171;28;20044;-72
2023/10/08 06:59:18;;;;;;;0.30;0.30;;;13.80;99.90;;;;;;5095296;28;20114;-74
2023/10/08 07:01:46;;;;;;;0.50;0.40;;;13.80;99.90;;;;;;5094222;28;20056;-72
2023/10/08 07:04:13;;;;;;;0.40;0.40;;;13.80;99.90;;;;;;5094349;28;20278;-72
2023/10/08 07:06:40;;;;;;;0.35;0.35;;;13.90;99.90;;;;;;5094315;28;20036;-78
2023/10/08 07:09:06;;;;;;;0.45;0.45;;;13.90;99.90;;;;;;5094138;28;20048;-78
2023/10/08 07:11:39;;;;;;;0.40;0.40;;;14.00;99.90;;;;;;5094171;28;20127;-76
2023/10/08 07:14:05;;;;;;;0.30;0.30;;;14.00;99.90;;;;;;5098275;28;20063;-74
2023/10/08 07:16:31;;;;;;;0.30;0.30;;;14.00;99.90;;;;;;5111088;28;20039;-72
2023/10/08 07:19:03;;;;;;;0.30;0.30;;;14.00;99.90;;;;;;5112753;28;20066;-77
2023/10/08 07:21:29;;;;;;;0.38;0.38;;;14.10;99.90;;;;;;5101325;28;20444;-72
2023/10/08 07:23:56;;;;;;;0.40;0.40;;;14.10;99.90;;;;;;5103481;28;20047;-73
2023/10/08 07:26:24;;;;;;;;;;;14.10;99.90;;;;;;5104013;28;20040;-72
2023/10/08 07:28:53;;;;;;;0.30;0.30;;;14.10;99.90;;;;;;5097624;28;19923;-73
2023/10/08 07:31:23;;;;;;;0.30;0.30;;;14.00;99.90;;;;;;5093894;28;20464;-73
2023/10/08 07:33:56;;;;;;;0.30;0.30;;;14.10;99.90;;;;;;5094202;28;20055;-73
2023/10/08 07:36:26;;;;;;;0.35;0.35;;;14.10;99.90;;;;;;5094067;28;20050;-74
2023/10/08 07:38:53;;;;;;;0.30;0.30;;;14.20;99.90;;;;;;5093628;28;20048;-74
2023/10/08 07:41:22;;;;;;;0.30;0.30;;;14.20;99.90;;;;;;5093623;28;20472;-74
2023/10/08 07:43:58;;;;;;;0.30;0.30;;;14.30;99.90;;;;;;5093884;28;20040;-74
2023/10/08 07:46:28;;;;;;;0.30;0.30;;;14.30;99.90;;;;;;5094370;28;20165;-74
2023/10/08 07:48:54;;;;;;;0.30;0.30;;;14.40;99.90;;;;;;5094192;28;20040;-73
2023/10/08 07:51:23;;;;;;;0.30;0.30;;;14.40;99.90;;;;;;5094167;28;20032;-72
2023/10/08 07:53:55;;;;;;;0.40;0.40;;;14.50;99.90;;;;;;5094676;28;20122;-74
2023/10/08 07:56:24;;;;;;;0.30;0.30;;;14.60;99.90;;;;;;5093948;28;20118;-73
2023/10/08 07:58:51;;;;;;;0.30;0.30;;;14.50;99.90;;;;;;5093884;28;20036;-75
2023/10/08 08:01:17;;;;;;;;;;;14.60;99.90;;;;;;5094229;28;20448;-73
2023/10/08 08:03:44;;;;;;;0.40;0.40;;;14.60;99.90;;;;;;5093650;28;19960;-74
2023/10/08 08:06:10;;;;;;;0.40;0.40;;;14.60;99.90;;;;;;5093617;28;20047;-73
2023/10/08 08:08:37;;;;;;;0.30;0.30;;;14.50;99.90;;;;;;5093203;28;20048;-73
2023/10/08 08:11:11;;;;;;;0.30;0.30;;;14.50;99.90;;;;;;5093905;28;20127;-75
2023/10/08 08:13:43;;;;;;;0.40;0.40;;;14.50;99.90;;;;;;5093822;28;20047;-73
2023/10/08 08:16:20;;;;;;;0.30;0.30;;;14.60;99.90;;;;;;5097638;28;20043;-74
2023/10/08 08:18:59;;;;;;;0.32;0.32;;;14.50;99.90;;;;;;5097527;28;20047;-74
2023/10/08 08:21:25;;;;;;;0.35;0.30;;;14.50;99.90;;;;;;5097375;28;20036;-74
2023/10/08 08:23:52;;;;;;;0.40;0.40;;;14.50;99.90;;;;;;5097490;28;20051;-74
2023/10/08 08:26:26;;;;;;;0.30;0.30;;;14.50;99.90;;;;;;5097471;28;20054;-74
2023/10/08 08:29:02;;;;;;;0.30;0.30;;;14.50;99.90;;;;;;5097378;28;20042;-74
2023/10/08 08:31:35;;;;;;;0.35;0.35;;;14.50;99.90;;;;;;5097272;28;20035;-74
2023/10/08 08:34:13;;;;;;;0.40;0.40;;;14.40;99.90;;;;;;5097553;28;20036;-73
2023/10/08 08:36:45;;;;;;;0.40;0.40;;;14.40;99.90;;;;;;5097377;28;20043;-74
2023/10/08 08:39:11;;;;;;;0.30;0.30;;;14.40;99.90;;;;;;5096853;28;20142;-73
2023/10/08 08:41:38;;;;;;;0.30;0.30;;;14.40;99.90;;;;;;5097016;28;20119;-73
2023/10/08 08:44:06;;;;;;;0.40;0.40;;;14.50;99.90;;;;;;5097215;28;20063;-74
2023/10/08 08:46:35;;;;;;;0.40;0.40;;;14.60;99.90;;;;;;5097113;28;20036;-73
2023/10/08 08:49:07;;;;;;;0.30;0.30;;;14.60;99.90;;;;;;5097300;28;20089;-75
2023/10/08 08:51:37;;;;;;;0.30;0.30;;;14.60;99.90;;;;;;5097070;28;20089;-73
2023/10/08 08:54:06;;;;;;;0.30;0.30;;;14.70;99.90;;;;;;5096981;28;20047;-75
2023/10/08 08:56:38;;;;;;;0.30;0.30;;;14.80;99.90;;;;;;5096988;28;20146;-74
2023/10/08 08:59:05;;;;;;;0.30;0.30;;;14.90;99.90;;;;;;5096814;28;20055;-75
2023/10/08 09:01:32;;;;;;;0.30;0.30;;;15.00;99.90;;;;;;5096822;28;20119;-74
2023/10/08 09:04:04;;;;;;;0.55;0.55;;;15.10;99.90;;;;;;5096602;28;20036;-75
2023/10/08 09:06:44;;;;;;;0.30;0.30;;;15.10;99.90;;;;;;5096591;28;20485;-74
2023/10/08 09:09:22;;;;;;;0.30;0.30;;;15.20;99.90;;;;;;5097272;28;20181;-74
2023/10/08 09:11:52;;;;;;;0.30;0.30;;;15.30;99.90;;;;;;5096465;28;20036;-74
2023/10/08 09:14:22;;;;;;;0.30;0.30;;;15.30;99.90;;;;;;5096409;28;20040;-74
2023/10/08 09:16:49;;;;;;;0.30;0.30;;;15.40;99.90;;;;;;5096343;28;20036;-75
2023/10/08 09:19:18;;;;;;;;;;;15.50;99.90;;;;;;5096893;28;20059;-75
2023/10/08 09:22:04;;;;;;;0.30;0.30;;;15.50;99.90;;;;;;5096216;28;19924;-74
2023/10/08 09:24:49;;;;;;;0.30;0.30;;;15.60;99.90;;;;;;5096516;28;20040;-74
2023/10/08 09:27:15;;;;;;;0.32;0.32;;;15.60;99.90;;;;;;5095130;28;20028;-74
2023/10/08 09:29:41;;;;;;;0.40;0.40;;;15.70;99.90;;;;;;5096389;28;20044;-74
2023/10/08 09:32:23;;;;;;;0.30;0.30;;;16.00;99.90;;;;;;5096142;28;20071;-75
2023/10/08 09:34:50;;;;;;;0.30;0.30;;;16.00;99.90;;;;;;5096308;28;20486;-75
2023/10/08 09:37:17;;;;;;;0.40;0.40;;;16.00;99.90;;;;;;5096184;28;20044;-75
2023/10/08 09:39:45;;;;;;;0.40;0.40;;;16.00;99.90;;;;;;5095973;28;20040;-74
2023/10/08 09:42:12;;;;;;;0.30;0.30;;;16.00;99.90;;;;;;5095732;28;20048;-76
2023/10/08 09:44:39;;;;;;;0.30;0.30;;;16.00;99.90;;;;;;5095839;28;20044;-74
2023/10/08 09:47:06;;;;;;;0.30;0.30;;;16.10;99.90;;;;;;5095622;28;20032;-74
2023/10/08 09:49:43;;;;;;;0.32;0.32;;;16.10;99.90;;;;;;5096074;28;20047;-75
2023/10/08 09:52:10;;;;;;;0.30;0.30;;;16.10;99.90;;;;;;5095921;28;20467;-78
2023/10/08 09:54:40;;;;;;;;;;;16.20;99.90;;;;;;5095785;28;20085;-73
2023/10/08 09:57:06;;;;;;;0.30;0.30;;;16.20;99.90;;;;;;5095708;28;19916;-73
2023/10/08 09:59:34;;;;;;;0.40;0.40;;;16.20;99.90;;;;;;5095752;28;20471;-73
2023/10/08 10:02:02;;;;;;;0.50;0.50;;;16.30;99.90;;;;;;5095270;28;20036;-73
2023/10/08 10:04:31;;;;;;;0.30;0.30;;;16.40;99.90;;;;;;5095410;28;20044;-74
2023/10/08 10:07:00;;;;;;;0.38;0.38;;;16.50;99.90;;;;;;5095030;28;20415;-74
2023/10/08 10:09:26;;;;;;;0.30;0.30;;;16.60;99.90;;;;;;5095316;28;20051;-74
2023/10/08 10:11:54;;;;;;;0.65;0.65;;;16.70;99.90;;;;;;5095346;28;20032;-74
2023/10/08 10:14:24;;;;;;;0.30;0.30;;;16.80;99.90;;;;;;5095258;28;20088;-73
2023/10/08 10:17:26;;;;;;;0.30;0.30;;;16.70;99.90;;;;;;5095130;28;20038;-74
2023/10/08 10:19:55;;;;;;;0.40;0.40;;;16.70;99.90;;;;;;5052916;28;20045;-75
2023/10/08 10:22:35;;;;;;;0.47;0.47;;;16.70;99.90;;;;;;5087722;28;20349;-75
2023/10/08 10:25:14;;;;;;;0.30;0.30;;;16.70;99.90;;;;;;5095179;28;20040;-76
2023/10/08 10:27:58;;;;;;;0.30;0.30;;;16.60;99.90;;;;;;5095386;28;20036;-75
2023/10/08 10:30:25;;;;;;;0.30;0.30;;;16.70;99.90;;;;;;5094475;28;20042;-75
2023/10/08 10:33:01;;;;;;;0.30;0.30;;;16.70;99.90;;;;;;5094929;28;20459;-75
2023/10/08 10:35:27;;;;;;;0.40;0.40;;;16.70;99.90;;;;;;5095155;28;20050;-74
2023/10/08 10:37:55;;;;;;;0.28;0.28;;;16.70;99.90;;;;;;5096293;28;20040;-78
2023/10/08 10:40:39;;;;;;;0.90;0.85;;;16.70;99.90;;;;;;5094781;28;20428;-75
2023/10/08 10:43:06;;;;;;;0.30;0.30;;;16.70;99.90;;;;;;5094752;28;20067;-74
2023/10/08 10:45:51;;;;;;;0.32;0.32;;;16.80;99.90;;;;;;5094589;28;20451;-74
2023/10/08 10:53:44;;;;;;;1.17;0.65;;;16.80;99.90;;;;;;5095268;28;20055;-74
2023/10/08 10:56:18;;;;;;;0.30;0.30;;;16.70;99.90;;;;;;5094877;28;20035;-74
2023/10/08 10:58:53;;;;;;;0.30;0.30;;;16.60;99.90;;;;;;5094416;28;20083;-75
2023/10/08 11:01:29;;;;;;;0.85;0.85;;;16.50;99.90;;;;;;5093518;28;20075;-74
2023/10/08 11:03:57;;;;;;;0.20;0.20;;;16.50;99.90;;;;;;5093915;28;20435;-72
2023/10/08 11:06:24;;;;;;;0.30;0.30;;;16.40;99.90;;;;;;5094796;28;20418;-77
2023/10/08 11:08:53;;;;;;;0.30;0.30;;;16.40;99.90;;;;;;5092782;28;20055;-78
2023/10/08 11:11:27;;;;;;;0.40;0.40;;;16.50;99.90;;;;;;5094496;28;20032;-79
2023/10/08 11:14:00;;;;;;;0.22;0.22;;;16.40;99.90;;;;;;5094585;28;20048;-75
2023/10/08 11:16:26;;;;;;;0.35;0.35;;;16.40;99.90;;;;;;5076638;28;20036;-72
2023/10/08 11:19:01;;;;;;;0.40;0.40;;;16.40;99.90;;;;;;5094411;28;20040;-73
2023/10/08 11:21:31;;;;;;;0.32;0.32;;;16.40;99.90;;;;;;5094069;28;20058;-75
2023/10/08 11:23:58;;;;;;;3.22;0.77;;;16.50;99.90;;;;;;5094120;28;20040;-74
2023/10/08 11:26:38;;;;;;;0.40;0.40;;;16.60;99.90;;;;;;5093943;28;20047;-76
2023/10/08 11:29:06;;;;;;;0.50;0.50;;;16.70;99.90;;;;;;5094567;28;20047;-75
2023/10/08 11:31:34;;;;;;;0.50;0.50;;;16.60;99.90;;;;;;5094022;28;20040;-73
2023/10/08 11:34:08;;;;;;;0.30;0.30;;;16.70;99.90;;;;;;5094022;28;20177;-74
2023/10/08 11:36:48;;;;;;;0.30;0.30;;;16.70;99.90;;;;;;5094004;28;20122;-75
2023/10/08 11:39:21;;;;;;;0.30;0.30;;;16.90;99.90;;;;;;5093506;28;20043;-74
2023/10/08 11:42:03;;;;;;;0.30;0.30;;;16.90;99.90;;;;;;5093183;28;20040;-75
2023/10/08 11:44:30;;;;;;;0.30;0.30;;;17.00;99.90;;;;;;5093768;28;20040;-75
2023/10/08 11:47:10;;;;;;;0.30;0.30;;;17.10;99.90;;;;;;5093896;28;20055;-74
2023/10/08 11:49:37;;;;;;;0.43;0.43;;;17.20;99.90;;;;;;5092593;28;20036;-73
2023/10/08 11:52:03;;;;;;;0.30;0.30;;;17.30;99.90;;;;;;5092478;28;20119;-74
2023/10/08 11:54:32;;;;;;;0.20;0.20;;;17.40;99.90;;;;;;5094015;28;20055;-73
2023/10/08 11:57:02;;;;;;;0.20;0.20;;;17.30;99.90;;;;;;5093919;28;20052;-73
2023/10/08 11:59:29;;;;;;;0.30;0.30;;;17.30;99.90;;;;;;5093603;28;20375;-74
2023/10/08 12:02:01;;;;;;;0.32;0.32;;;17.30;99.90;;;;;;5091673;28;20448;-74
2023/10/08 12:04:29;;;;;;;0.40;0.40;;;17.50;99.90;;;;;;5093179;28;20067;-76
2023/10/08 12:06:55;;;;;;;0.30;0.30;;;17.50;99.90;;;;;;5093381;28;20549;-76
2023/10/08 12:09:21;;;;;;;0.40;0.40;;;17.70;99.90;;;;;;5093236;28;20044;-75
2023/10/08 12:11:51;;;;;;;0.30;0.30;;;17.80;99.90;;;;;;5093442;28;20123;-76
2023/10/08 12:14:18;;;;;;;0.30;0.30;;;17.90;99.90;;;;;;5093336;28;20043;-75
2023/10/08 12:16:45;;;;;;;0.30;0.30;;;18.10;99.90;;;;;;5093167;28;20040;-75
2023/10/08 12:19:17;;;;;;;0.57;0.57;;;18.20;99.90;;;;;;5093072;28;20052;-74
2023/10/08 12:21:47;;;;;;;0.30;0.30;;;18.30;99.90;;;;;;5093212;28;20115;-75
2023/10/08 12:24:14;;;;;;;0.30;0.30;;;18.50;99.90;;;;;;5093401;28;20495;-74
2023/10/08 12:26:45;;;;;;;2.55;0.70;;;18.50;99.90;;;;;;5093237;28;20040;-74
2023/10/08 12:29:14;;;;;;;0.25;0.25;;;18.50;99.90;;;;;;5093110;28;20082;-71
2023/10/08 12:31:40;;;;;;;0.73;0.73;;;18.40;99.90;;;;;;5093123;28;20429;-76
2023/10/08 12:34:11;;;;;;;0.50;0.50;;;18.30;99.90;;;;;;5093314;28;20036;-73
2023/10/08 12:36:37;;;;;;;0.47;0.47;;;18.20;99.90;;;;;;5093185;28;20165;-75
2023/10/08 12:39:10;;;;;;;0.30;0.30;;;18.20;99.90;;;;;;5092896;28;20036;-77
2023/10/08 12:41:38;;;;;;;0.40;0.40;;;18.20;99.90;;;;;;5093036;28;20040;-74
2023/10/08 12:44:07;;;;;;;0.30;0.30;;;18.00;99.90;;;;;;5092673;28;20403;-75
2023/10/08 12:46:33;;;;;;;0.30;0.30;;;18.00;99.90;;;;;;5092967;28;20494;-75
2023/10/08 12:49:01;;;;;;;0.75;0.32;;;18.00;99.90;;;;;;5093151;28;20047;-75
2023/10/08 12:51:31;;;;;;;0.40;0.40;;;18.00;99.90;;;;;;5093028;28;20054;-75
2023/10/08 12:54:06;;;;;;;2.83;0.50;;;18.00;99.90;;;;;;5092733;28;20040;-75
2023/10/08 12:56:35;;;;;;;0.30;0.30;;;17.90;99.90;;;;;;5092863;28;20047;-75
2023/10/08 12:59:04;;;;;;;0.30;0.30;;;17.90;99.90;;;;;;5092900;28;20044;-75
2023/10/08 13:01:30;;;;;;;0.28;0.28;;;18.00;99.90;;;;;;5095475;28;20051;-75
2023/10/08 13:04:07;;;;;;;0.40;0.40;;;17.90;99.90;;;;;;5096123;28;20375;-75
2023/10/08 13:06:37;;;;;;;0.30;0.30;;;17.90;99.90;;;;;;5078575;28;20040;-75
2023/10/08 13:09:09;;;;;;;0.30;0.30;;;17.90;99.90;;;;;;5094950;28;20048;-76
2023/10/08 13:11:34;;;;;;;0.52;0.30;;;17.90;99.90;;;;;;5090900;28;20044;-79
2023/10/08 13:14:03;;;;;;;0.30;0.30;;;17.70;99.90;;;;;;5075454;28;20045;-77
2023/10/08 13:16:31;;;;;;;0.30;0.30;;;17.70;99.90;;;;;;5075676;28;20127;-77
2023/10/08 13:18:58;;;;;;;0.30;0.30;;;17.60;99.90;;;;;;5074951;28;20087;-77
2023/10/08 13:21:28;;;;;;;0.30;0.30;;;17.60;99.90;;;;;;5075848;28;20080;-77
2023/10/08 13:23:59;;;;;;;0.30;0.30;;;17.50;99.90;;;;;;5075622;28;20064;-77
2023/10/08 13:26:31;;;;;;;0.30;0.30;;;17.40;99.90;;;;;;5075051;28;20127;-77
2023/10/08 13:28:58;;;;;;;0.30;0.30;;;17.30;99.90;;;;;;5075611;28;20499;-77
2023/10/08 13:31:24;;;;;;;0.30;0.30;;;17.20;99.90;;;;;;5076170;28;20045;-76
2023/10/08 13:33:52;;;;;;;0.30;0.30;;;17.20;99.90;;;;;;5075565;28;20114;-77
2023/10/08 13:36:18;;;;;;;0.82;0.82;;;17.20;99.90;;;;;;5074333;28;20384;-77
2023/10/08 13:38:51;;;;;;;0.30;0.30;;;17.30;99.90;;;;;;5074546;28;20051;-77
2023/10/08 13:41:20;;;;;;;0.35;0.35;;;17.30;99.90;;;;;;5075622;28;20075;-77
2023/10/08 13:43:48;;;;;;;0.30;0.30;;;17.30;99.90;;;;;;5075689;28;20485;-79
2023/10/08 13:46:17;;;;;;;0.32;0.32;;;17.30;99.90;;;;;;5074639;28;20037;-78
2023/10/08 13:48:48;;;;;;;0.30;0.30;;;17.30;99.90;;;;;;5091234;28;20135;-76